createdAt,value
2023-04-11T00:00:47.346Z,68.96
2023-04-11T00:01:47.356Z,69.77
2023-04-11T00:02:47.431Z,69.77
2023-04-11T00:03:47.433Z,70.09
2023-04-11T00:04:47.353Z,69.61
2023-04-11T00:05:47.266Z,69.93
2023-04-11T00:06:47.229Z,68.48
2023-04-11T00:07:47.206Z,71.38
2023-04-11T00:08:47.204Z,71.87
2023-04-11T00:09:47.160Z,72.83
2023-04-11T00:10:47.160Z,68.80
2023-04-11T00:11:47.122Z,68.32
2023-04-11T00:12:47.141Z,69.45
2023-04-11T00:13:47.104Z,68.32
2023-04-11T00:14:47.095Z,67.19
2023-04-11T00:15:47.088Z,70.90
2023-04-11T00:16:47.131Z,69.13
2023-04-11T00:17:47.078Z,71.38
2023-04-11T00:18:47.012Z,70.58
2023-04-11T00:19:47.062Z,68.96
2023-04-11T00:20:47.007Z,68.48
2023-04-11T00:21:46.960Z,67.84
2023-04-11T00:22:46.967Z,67.19
2023-04-11T00:23:46.921Z,69.45
2023-04-11T00:24:46.906Z,66.87
2023-04-11T00:25:46.923Z,68.48
2023-04-11T00:26:46.872Z,70.74
2023-04-11T00:27:46.993Z,69.77
2023-04-11T00:28:46.851Z,67.35
2023-04-11T00:29:46.814Z,66.87
2023-04-11T00:30:46.835Z,68.64
2023-04-11T00:31:46.820Z,69.13
2023-04-11T00:32:46.848Z,68.80
2023-04-11T00:33:46.757Z,68.80
2023-04-11T00:34:46.740Z,68.16
2023-04-11T00:35:46.882Z,68.48
2023-04-11T00:36:46.725Z,68.16
2023-04-11T00:37:46.692Z,68.80
2023-04-11T00:38:46.662Z,66.87
2023-04-11T00:39:46.641Z,67.68
2023-04-11T00:40:46.676Z,71.87
2023-04-11T00:41:46.605Z,68.48
2023-04-11T00:42:46.591Z,68.48
2023-04-11T00:43:46.616Z,67.19
2023-04-11T00:44:46.763Z,66.06
2023-04-11T00:45:46.592Z,67.51
2023-04-11T00:46:46.524Z,67.03
2023-04-11T00:47:46.589Z,69.93
2023-04-11T00:48:46.505Z,66.55
2023-04-11T00:49:46.613Z,69.29
2023-04-11T00:50:46.492Z,68.80
2023-04-11T00:51:46.444Z,68.32
2023-04-11T00:52:46.415Z,66.55
2023-04-11T00:53:46.403Z,65.90
2023-04-11T00:54:46.397Z,70.58
2023-04-11T00:55:46.395Z,69.29
2023-04-11T00:56:46.353Z,69.13
2023-04-11T00:57:46.347Z,68.80
2023-04-11T00:58:46.322Z,66.87
2023-04-11T00:59:46.304Z,67.84
2023-04-11T01:00:46.357Z,66.55
2023-04-11T01:01:46.428Z,67.84
2023-04-11T01:02:46.357Z,65.74
2023-04-11T01:03:46.327Z,68.32
2023-04-11T01:04:46.225Z,70.25
2023-04-11T01:05:47.236Z,67.84
2023-04-11T01:06:46.195Z,69.13
2023-04-11T01:07:46.170Z,69.29
2023-04-11T01:08:46.172Z,70.42
2023-04-11T01:09:46.139Z,68.32
2023-04-11T01:10:46.163Z,68.16
2023-04-11T01:11:46.102Z,68.16
2023-04-11T01:12:46.112Z,68.16
2023-04-11T01:13:46.075Z,68.64
2023-04-11T01:14:46.069Z,67.84
2023-04-11T01:15:46.054Z,71.70
2023-04-11T01:16:46.066Z,67.84
2023-04-11T01:17:46.038Z,67.84
2023-04-11T01:18:45.987Z,69.13
2023-04-11T01:19:45.987Z,68.80
2023-04-11T01:20:45.962Z,67.19
2023-04-11T01:21:45.964Z,70.58
2023-04-11T01:22:45.911Z,68.32
2023-04-11T01:23:46.366Z,69.77
2023-04-11T01:24:45.883Z,68.00
2023-04-11T01:25:45.860Z,68.16
2023-04-11T01:26:45.877Z,69.77
2023-04-11T01:27:45.842Z,68.32
2023-04-11T01:28:45.804Z,68.32
2023-04-11T01:29:45.799Z,69.29
2023-04-11T01:30:45.825Z,68.16
2023-04-11T01:31:45.802Z,68.32
2023-04-11T01:32:45.810Z,69.13
2023-04-11T01:33:45.729Z,66.39
2023-04-11T01:34:45.732Z,69.77
2023-04-11T01:35:45.720Z,72.35
2023-04-11T01:36:45.703Z,68.64
2023-04-11T01:37:45.666Z,69.77
2023-04-11T01:38:45.645Z,69.93
2023-04-11T01:39:45.622Z,69.45
2023-04-11T01:40:45.605Z,66.23
2023-04-11T01:41:45.632Z,70.74
2023-04-11T01:42:45.571Z,68.16
2023-04-11T01:43:45.591Z,69.45
2023-04-11T01:44:45.533Z,70.09
2023-04-11T01:45:45.517Z,69.13
2023-04-11T01:46:45.553Z,69.77
2023-04-11T01:47:45.535Z,68.48
2023-04-11T01:48:45.700Z,68.64
2023-04-11T01:49:45.472Z,69.45
2023-04-11T01:50:45.432Z,68.96
2023-04-11T01:51:45.449Z,68.80
2023-04-11T01:52:45.398Z,68.64
2023-04-11T01:53:45.389Z,71.22
2023-04-11T01:54:45.363Z,68.48
2023-04-11T01:55:45.374Z,66.71
2023-04-11T01:56:45.364Z,68.96
2023-04-11T01:57:45.310Z,67.68
2023-04-11T01:58:45.310Z,69.93
2023-04-11T01:59:45.282Z,70.58
2023-04-11T02:00:45.258Z,69.29
2023-04-11T02:01:45.362Z,73.15
2023-04-11T02:02:45.331Z,70.25
2023-04-11T02:03:45.290Z,69.77
2023-04-11T02:04:45.204Z,69.61
2023-04-11T02:05:45.182Z,70.09
2023-04-11T02:06:45.195Z,69.29
2023-04-11T02:07:45.225Z,69.45
2023-04-11T02:08:45.137Z,68.80
2023-04-11T02:09:45.110Z,71.87
2023-04-11T02:10:45.096Z,67.68
2023-04-11T02:11:45.101Z,70.74
2023-04-11T02:12:45.077Z,69.61
2023-04-11T02:13:45.044Z,70.90
2023-04-11T02:14:45.022Z,70.90
2023-04-11T02:15:45.020Z,69.45
2023-04-11T02:16:45.008Z,68.80
2023-04-11T02:17:45.975Z,70.42
2023-04-11T02:18:44.964Z,69.13
2023-04-11T02:19:44.952Z,67.51
2023-04-11T02:20:44.935Z,69.93
2023-04-11T02:21:44.928Z,69.77
2023-04-11T02:22:44.877Z,68.80
2023-04-11T02:23:44.879Z,70.25
2023-04-11T02:24:44.840Z,69.45
2023-04-11T02:25:44.841Z,69.29
2023-04-11T02:26:44.860Z,69.45
2023-04-11T02:27:44.816Z,70.58
2023-04-11T02:28:44.778Z,69.29
2023-04-11T02:29:44.771Z,71.54
2023-04-11T02:30:44.892Z,69.77
2023-04-11T02:31:44.805Z,68.80
2023-04-11T02:32:44.742Z,69.93
2023-04-11T02:33:44.693Z,70.25
2023-04-11T02:34:44.699Z,70.09
2023-04-11T02:35:44.690Z,72.35
2023-04-11T02:36:44.669Z,71.70
2023-04-11T02:37:44.624Z,69.45
2023-04-11T02:38:44.615Z,69.29
2023-04-11T02:39:44.583Z,69.29
2023-04-11T02:40:44.576Z,70.74
2023-04-11T02:41:44.592Z,69.61
2023-04-11T02:42:44.548Z,70.09
2023-04-11T02:43:44.520Z,68.96
2023-04-11T02:44:44.530Z,76.54
2023-04-11T02:45:44.485Z,71.22
2023-04-11T02:46:44.526Z,71.06
2023-04-11T02:47:44.474Z,68.48
2023-04-11T02:48:44.449Z,69.93
2023-04-11T02:49:44.422Z,72.35
2023-04-11T02:50:44.406Z,69.93
2023-04-11T02:51:44.416Z,71.87
2023-04-11T02:52:44.930Z,69.45
2023-04-11T02:53:44.345Z,67.84
2023-04-11T02:54:44.325Z,69.93
2023-04-11T02:55:44.324Z,70.25
2023-04-11T02:56:44.349Z,69.45
2023-04-11T02:57:44.291Z,69.77
2023-04-11T02:58:44.259Z,71.22
2023-04-11T02:59:44.261Z,71.87
2023-04-11T03:00:44.243Z,69.29
2023-04-11T03:01:44.289Z,71.54
2023-04-11T03:02:44.286Z,69.77
2023-04-11T03:03:44.303Z,71.87
2023-04-11T03:04:44.153Z,70.58
2023-04-11T03:05:44.140Z,70.42
2023-04-11T03:06:44.151Z,68.80
2023-04-11T03:07:45.108Z,69.61
2023-04-11T03:08:44.085Z,70.58
2023-04-11T03:09:44.079Z,72.51
2023-04-11T03:10:44.060Z,71.06
2023-04-11T03:11:45.603Z,70.58
2023-04-11T03:12:44.025Z,71.22
2023-04-11T03:13:44.024Z,68.80
2023-04-11T03:14:43.998Z,69.45
2023-04-11T03:15:44.010Z,68.80
2023-04-11T03:16:44.040Z,68.48
2023-04-11T03:17:43.975Z,70.42
2023-04-11T03:18:43.949Z,70.25
2023-04-11T03:19:43.896Z,69.61
2023-04-11T03:20:43.910Z,70.74
2023-04-11T03:21:43.898Z,70.58
2023-04-11T03:22:43.853Z,71.22
2023-04-11T03:23:43.881Z,73.32
2023-04-11T03:24:43.813Z,71.70
2023-04-11T03:25:43.792Z,71.70
2023-04-11T03:26:43.822Z,70.58
2023-04-11T03:27:43.811Z,71.87
2023-04-11T03:28:43.743Z,70.74
2023-04-11T03:29:43.739Z,70.58
2023-04-11T03:30:43.727Z,69.93
2023-04-11T03:31:43.793Z,70.42
2023-04-11T03:32:43.735Z,70.90
2023-04-11T03:33:43.667Z,71.06
2023-04-11T03:34:44.653Z,70.58
2023-04-11T03:35:43.680Z,70.42
2023-04-11T03:36:43.653Z,71.70
2023-04-11T03:37:43.609Z,71.70
2023-04-11T03:38:43.575Z,71.54
2023-04-11T03:39:43.573Z,69.77
2023-04-11T03:40:43.548Z,70.42
2023-04-11T03:41:43.572Z,70.74
2023-04-11T03:42:43.508Z,70.74
2023-04-11T03:43:43.495Z,72.83
2023-04-11T03:44:43.492Z,71.70
2023-04-11T03:45:43.490Z,70.90
2023-04-11T03:46:43.554Z,71.06
2023-04-11T03:47:43.476Z,73.48
2023-04-11T03:48:43.420Z,72.35
2023-04-11T03:49:43.387Z,72.35
2023-04-11T03:50:43.395Z,73.48
2023-04-11T03:51:43.394Z,71.70
2023-04-11T03:52:43.337Z,71.87
2023-04-11T03:53:43.313Z,71.87
2023-04-11T03:54:44.460Z,72.19
2023-04-11T03:55:43.280Z,74.60
2023-04-11T03:56:43.293Z,73.80
2023-04-11T03:57:43.250Z,74.44
2023-04-11T03:58:43.236Z,74.12
2023-04-11T03:59:43.211Z,73.96
2023-04-11T04:00:43.213Z,77.50
2023-04-11T04:02:16.980Z,76.05
2023-04-11T04:02:43.365Z,75.25
2023-04-11T04:03:43.315Z,73.15
2023-04-11T04:04:43.253Z,77.99
2023-04-11T04:05:43.148Z,71.70
2023-04-11T04:06:43.139Z,71.38
2023-04-11T04:07:43.090Z,71.87
2023-04-11T04:08:43.073Z,73.80
2023-04-11T04:09:43.052Z,72.99
2023-04-11T04:10:43.036Z,71.22
2023-04-11T04:11:43.070Z,71.70
2023-04-11T04:12:43.165Z,72.35
2023-04-11T04:13:42.988Z,73.48
2023-04-11T04:14:42.994Z,73.32
2023-04-11T04:15:42.947Z,71.54
2023-04-11T04:16:43.006Z,72.35
2023-04-11T04:17:42.961Z,71.54
2023-04-11T04:18:42.938Z,77.83
2023-04-11T04:19:42.897Z,74.77
2023-04-11T04:20:42.877Z,75.41
2023-04-11T04:21:42.886Z,72.83
2023-04-11T04:22:42.838Z,71.54
2023-04-11T04:23:42.814Z,77.99
2023-04-11T04:24:42.790Z,74.44
2023-04-11T04:25:42.794Z,70.42
2023-04-11T04:26:42.812Z,72.19
2023-04-11T04:27:42.767Z,72.99
2023-04-11T04:28:42.726Z,73.64
2023-04-11T04:29:42.729Z,72.67
2023-04-11T04:30:42.698Z,75.41
2023-04-11T04:31:42.765Z,70.90
2023-04-11T04:32:42.693Z,70.74
2023-04-11T04:33:42.661Z,72.51
2023-04-11T04:34:42.624Z,72.51
2023-04-11T04:35:42.683Z,72.51
2023-04-11T04:36:42.629Z,70.74
2023-04-11T04:37:42.619Z,71.22
2023-04-11T04:38:42.585Z,71.22
2023-04-11T04:39:42.560Z,73.64
2023-04-11T04:40:42.543Z,70.58
2023-04-11T04:41:42.566Z,72.35
2023-04-11T04:42:42.500Z,73.48
2023-04-11T04:43:42.485Z,76.38
2023-04-11T04:44:42.495Z,75.89
2023-04-11T04:45:42.522Z,70.90
2023-04-11T04:46:42.501Z,72.83
2023-04-11T04:47:42.534Z,71.70
2023-04-11T04:48:42.398Z,70.90
2023-04-11T04:49:42.469Z,70.42
2023-04-11T04:50:42.380Z,70.90
2023-04-11T04:51:42.353Z,69.93
2023-04-11T04:52:42.382Z,70.90
2023-04-11T04:53:42.304Z,72.35
2023-04-11T04:54:42.296Z,72.99
2023-04-11T04:55:42.283Z,71.87
2023-04-11T04:56:42.251Z,72.35
2023-04-11T04:57:42.280Z,72.35
2023-04-11T04:58:42.257Z,72.03
2023-04-11T04:59:42.224Z,72.51
2023-04-11T05:00:42.188Z,73.32
2023-04-11T05:01:42.316Z,72.83
2023-04-11T05:02:42.289Z,69.61
2023-04-11T05:03:42.171Z,73.64
2023-04-11T05:04:42.155Z,70.90
2023-04-11T05:05:42.128Z,72.83
2023-04-11T05:06:42.075Z,71.06
2023-04-11T05:07:42.100Z,71.87
2023-04-11T05:08:42.047Z,72.35
2023-04-11T05:09:42.044Z,71.22
2023-04-11T05:10:42.023Z,72.83
2023-04-11T05:11:41.997Z,72.19
2023-04-11T05:12:42.001Z,69.45
2023-04-11T05:13:41.964Z,70.74
2023-04-11T05:14:42.979Z,70.42
2023-04-11T05:15:41.935Z,69.61
2023-04-11T05:16:41.959Z,68.16
2023-04-11T05:17:41.952Z,71.38
2023-04-11T05:18:41.887Z,70.42
2023-04-11T05:19:41.854Z,71.87
2023-04-11T05:20:41.852Z,69.45
2023-04-11T05:21:41.819Z,71.06
2023-04-11T05:22:41.840Z,69.13
2023-04-11T05:23:41.796Z,70.25
2023-04-11T05:24:41.783Z,70.42
2023-04-11T05:25:41.761Z,70.90
2023-04-11T05:26:41.744Z,71.38
2023-04-11T05:27:41.757Z,71.22
2023-04-11T05:28:41.765Z,69.45
2023-04-11T05:29:41.738Z,70.58
2023-04-11T05:30:41.695Z,71.54
2023-04-11T05:31:41.669Z,72.03
2023-04-11T05:32:41.730Z,72.67
2023-04-11T05:33:41.637Z,70.90
2023-04-11T05:34:41.633Z,71.06
2023-04-11T05:35:41.615Z,72.51
2023-04-11T05:36:41.578Z,71.06
2023-04-11T05:37:41.583Z,70.90
2023-04-11T05:38:41.546Z,71.22
2023-04-11T05:39:41.525Z,71.22
2023-04-11T05:40:41.531Z,70.42
2023-04-11T05:41:41.497Z,72.19
2023-04-11T05:42:41.504Z,69.29
2023-04-11T05:43:41.484Z,72.51
2023-04-11T05:44:41.486Z,72.19
2023-04-11T05:45:41.465Z,70.90
2023-04-11T05:46:41.438Z,71.54
2023-04-11T05:47:41.463Z,70.25
2023-04-11T05:48:41.412Z,69.77
2023-04-11T05:49:41.365Z,72.35
2023-04-11T05:50:41.338Z,71.87
2023-04-11T05:51:41.360Z,72.51
2023-04-11T05:52:41.329Z,72.19
2023-04-11T05:53:41.292Z,71.38
2023-04-11T05:54:41.275Z,72.99
2023-04-11T05:55:41.235Z,69.29
2023-04-11T05:56:42.261Z,71.06
2023-04-11T05:57:41.262Z,74.93
2023-04-11T05:58:42.206Z,72.35
2023-04-11T05:59:41.194Z,70.25
2023-04-11T06:00:41.167Z,71.22
2023-04-11T06:01:41.203Z,70.09
2023-04-11T06:02:41.294Z,69.29
2023-04-11T06:03:41.226Z,69.29
2023-04-11T06:04:41.338Z,69.61
2023-04-11T06:05:41.086Z,69.45
2023-04-11T06:06:41.063Z,71.38
2023-04-11T06:07:41.094Z,71.06
2023-04-11T06:08:41.043Z,70.09
2023-04-11T06:09:41.019Z,70.74
2023-04-11T06:10:41.008Z,69.13
2023-04-11T06:11:41.099Z,69.93
2023-04-11T06:12:41.064Z,68.96
2023-04-11T06:13:40.950Z,68.80
2023-04-11T06:14:40.956Z,68.32
2023-04-11T06:15:40.938Z,69.45
2023-04-11T06:16:40.912Z,70.25
2023-04-11T06:17:40.926Z,69.77
2023-04-11T06:18:40.875Z,70.90
2023-04-11T06:19:40.886Z,68.48
2023-04-11T06:20:40.830Z,70.09
2023-04-11T06:21:40.836Z,67.51
2023-04-11T06:22:40.822Z,66.23
2023-04-11T06:23:40.800Z,66.23
2023-04-11T06:24:40.775Z,69.29
2023-04-11T06:25:40.760Z,68.32
2023-04-11T06:26:40.736Z,69.13
2023-04-11T06:27:40.777Z,69.61
2023-04-11T06:28:40.689Z,67.68
2023-04-11T06:29:40.683Z,69.61
2023-04-11T06:30:40.660Z,70.58
2023-04-11T06:31:40.673Z,70.90
2023-04-11T06:32:40.686Z,69.77
2023-04-11T06:33:40.610Z,68.64
2023-04-11T06:34:40.601Z,68.80
2023-04-11T06:35:40.606Z,68.00
2023-04-11T06:36:40.572Z,66.71
2023-04-11T06:37:40.571Z,69.77
2023-04-11T06:38:40.530Z,68.80
2023-04-11T06:39:40.515Z,67.68
2023-04-11T06:40:40.517Z,67.35
2023-04-11T06:41:40.475Z,67.84
2023-04-11T06:42:40.507Z,69.29
2023-04-11T06:43:40.449Z,69.29
2023-04-11T06:44:40.464Z,69.29
2023-04-11T06:45:40.407Z,69.45
2023-04-11T06:46:40.413Z,70.90
2023-04-11T06:47:40.472Z,69.45
2023-04-11T06:48:40.379Z,71.70
2023-04-11T06:49:40.332Z,71.06
2023-04-11T06:50:40.327Z,69.61
2023-04-11T06:51:40.311Z,70.42
2023-04-11T06:52:40.333Z,69.13
2023-04-11T06:53:40.272Z,71.87
2023-04-11T06:54:40.263Z,70.42
2023-04-11T06:55:40.722Z,72.03
2023-04-11T06:56:40.227Z,70.42
2023-04-11T06:57:40.244Z,70.25
2023-04-11T06:58:40.201Z,77.83
2023-04-11T06:59:40.185Z,70.09
2023-04-11T07:00:40.156Z,67.35
2023-04-11T07:01:40.273Z,72.51
2023-04-11T07:02:40.311Z,70.90
2023-04-11T07:03:40.333Z,71.38
2023-04-11T07:04:40.177Z,69.61
2023-04-11T07:05:40.076Z,71.87
2023-04-11T07:06:40.089Z,69.29
2023-04-11T07:07:41.071Z,70.58
2023-04-11T07:08:40.120Z,71.54
2023-04-11T07:09:40.096Z,68.32
2023-04-11T07:10:40.000Z,72.51
2023-04-11T07:11:39.986Z,69.61
2023-04-11T07:12:40.077Z,74.77
2023-04-11T07:13:40.944Z,70.74
2023-04-11T07:14:39.978Z,72.67
2023-04-11T07:15:39.931Z,70.74
2023-04-11T07:16:40.049Z,70.58
2023-04-11T07:17:40.930Z,69.93
2023-04-11T07:18:39.854Z,71.38
2023-04-11T07:19:39.829Z,71.70
2023-04-11T07:20:39.822Z,70.90
2023-04-11T07:21:39.824Z,70.09
2023-04-11T07:22:39.808Z,69.13
2023-04-11T07:23:39.769Z,68.80
2023-04-11T07:24:39.766Z,69.77
2023-04-11T07:25:39.786Z,69.61
2023-04-11T07:26:39.717Z,77.18
2023-04-11T07:27:39.724Z,71.22
2023-04-11T07:28:39.679Z,69.61
2023-04-11T07:29:39.675Z,69.77
2023-04-11T07:30:39.695Z,70.58
2023-04-11T07:31:39.697Z,70.90
2023-04-11T07:32:39.652Z,69.77
2023-04-11T07:33:39.648Z,67.03
2023-04-11T07:34:39.584Z,70.90
2023-04-11T07:35:39.626Z,69.61
2023-04-11T07:36:39.595Z,71.87
2023-04-11T07:37:39.544Z,69.93
2023-04-11T07:38:39.524Z,70.90
2023-04-11T07:39:39.496Z,69.93
2023-04-11T07:40:39.542Z,70.42
2023-04-11T07:41:39.501Z,69.93
2023-04-11T07:42:39.451Z,69.61
2023-04-11T07:43:39.435Z,69.13
2023-04-11T07:44:39.423Z,70.09
2023-04-11T07:45:39.568Z,68.96
2023-04-11T07:46:39.417Z,68.96
2023-04-11T07:47:39.522Z,70.74
2023-04-11T07:48:39.399Z,70.74
2023-04-11T07:49:39.334Z,71.06
2023-04-11T07:50:39.360Z,71.38
2023-04-11T07:51:39.427Z,68.64
2023-04-11T07:52:39.319Z,70.58
2023-04-11T07:53:39.288Z,68.80
2023-04-11T07:54:39.258Z,69.29
2023-04-11T07:55:39.232Z,79.92
2023-04-11T07:56:39.370Z,68.80
2023-04-11T07:57:39.192Z,69.93
2023-04-11T07:58:39.201Z,69.45
2023-04-11T07:59:39.176Z,68.64
2023-04-11T08:00:39.142Z,70.09
2023-04-11T08:01:39.181Z,68.96
2023-04-11T08:02:39.249Z,69.93
2023-04-11T08:03:39.289Z,68.48
2023-04-11T08:04:39.154Z,68.16
2023-04-11T08:05:39.096Z,70.42
2023-04-11T08:06:39.095Z,70.25
2023-04-11T08:07:39.034Z,75.09
2023-04-11T08:08:39.054Z,69.13
2023-04-11T08:09:39.011Z,69.93
2023-04-11T08:10:38.984Z,68.32
2023-04-11T08:11:39.024Z,69.45
2023-04-11T08:12:38.982Z,69.93
2023-04-11T08:13:38.923Z,69.45
2023-04-11T08:14:38.911Z,70.42
2023-04-11T08:15:38.920Z,70.42
2023-04-11T08:16:38.980Z,70.09
2023-04-11T08:17:39.034Z,69.77
2023-04-11T08:18:38.891Z,72.35
2023-04-11T08:19:38.889Z,71.70
2023-04-11T08:20:38.829Z,69.61
2023-04-11T08:21:38.849Z,70.42
2023-04-11T08:22:38.805Z,70.09
2023-04-11T08:23:38.818Z,70.09
2023-04-11T08:24:38.749Z,70.74
2023-04-11T08:25:39.038Z,70.90
2023-04-11T08:26:38.747Z,68.80
2023-04-11T08:27:38.693Z,67.51
2023-04-11T08:28:39.971Z,69.13
2023-04-11T08:29:38.663Z,67.03
2023-04-11T08:30:38.679Z,64.78
2023-04-11T08:31:38.659Z,70.42
2023-04-11T08:32:38.632Z,72.19
2023-04-11T08:33:38.648Z,69.29
2023-04-11T08:34:38.591Z,69.45
2023-04-11T08:35:38.605Z,70.09
2023-04-11T08:36:38.567Z,68.96
2023-04-11T08:37:38.513Z,70.09
2023-04-11T08:38:38.653Z,69.93
2023-04-11T08:39:38.518Z,70.90
2023-04-11T08:40:38.467Z,69.61
2023-04-11T08:41:38.504Z,70.09
2023-04-11T08:42:38.435Z,71.54
2023-04-11T08:43:38.413Z,68.80
2023-04-11T08:44:38.403Z,67.35
2023-04-11T08:45:38.409Z,68.80
2023-04-11T08:46:38.474Z,68.80
2023-04-11T08:47:38.349Z,67.35
2023-04-11T08:48:38.331Z,68.32
2023-04-11T08:49:38.335Z,68.32
2023-04-11T08:50:38.303Z,67.68
2023-04-11T08:51:38.292Z,65.26
2023-04-11T08:52:38.324Z,68.16
2023-04-11T08:53:38.247Z,67.03
2023-04-11T08:54:39.236Z,68.96
2023-04-11T08:55:38.222Z,68.32
2023-04-11T08:56:38.232Z,67.84
2023-04-11T08:57:38.220Z,68.16
2023-04-11T08:58:38.148Z,68.48
2023-04-11T08:59:38.145Z,69.77
2023-04-11T09:00:38.137Z,65.26
2023-04-11T09:01:38.195Z,69.77
2023-04-11T09:02:38.110Z,70.58
2023-04-11T09:03:38.134Z,67.03
2023-04-11T09:04:38.079Z,68.32
2023-04-11T09:05:38.130Z,68.32
2023-04-11T09:06:38.055Z,67.03
2023-04-11T09:07:37.991Z,67.68
2023-04-11T09:08:38.008Z,65.74
2023-04-11T09:09:37.965Z,66.39
2023-04-11T09:10:37.989Z,66.71
2023-04-11T09:11:37.994Z,67.35
2023-04-11T09:12:37.948Z,68.48
2023-04-11T09:13:37.894Z,68.00
2023-04-11T09:14:37.925Z,67.68
2023-04-11T09:15:37.913Z,67.19
2023-04-11T09:16:37.926Z,65.90
2023-04-11T09:17:37.927Z,65.58
2023-04-11T09:18:37.835Z,64.78
2023-04-11T09:19:37.803Z,66.23
2023-04-11T09:20:37.797Z,64.45
2023-04-11T09:21:37.804Z,66.23
2023-04-11T09:22:37.782Z,65.90
2023-04-11T09:23:37.770Z,66.23
2023-04-11T09:24:37.724Z,67.51
2023-04-11T09:25:37.709Z,69.29
2023-04-11T09:26:37.717Z,70.09
2023-04-11T09:27:37.687Z,71.38
2023-04-11T09:28:37.656Z,66.23
2023-04-11T09:29:37.638Z,65.10
2023-04-11T09:30:37.647Z,65.42
2023-04-11T09:31:37.696Z,64.78
2023-04-11T09:32:37.636Z,65.58
2023-04-11T09:33:37.577Z,71.22
2023-04-11T09:34:37.631Z,72.19
2023-04-11T09:35:37.582Z,68.00
2023-04-11T09:36:37.572Z,67.51
2023-04-11T09:37:37.532Z,68.64
2023-04-11T09:38:37.505Z,66.39
2023-04-11T09:39:37.508Z,64.78
2023-04-11T09:40:37.474Z,64.13
2023-04-11T09:41:37.486Z,66.06
2023-04-11T09:42:37.476Z,66.06
2023-04-11T09:43:37.441Z,64.78
2023-04-11T09:44:37.453Z,70.42
2023-04-11T09:45:47.760Z,68.96
2023-04-11T09:46:39.456Z,71.22
2023-04-11T09:47:37.424Z,65.26
2023-04-11T09:48:46.614Z,65.74
2023-04-11T09:49:39.357Z,64.94
2023-04-11T09:50:37.371Z,63.97
2023-04-11T09:51:37.437Z,63.81
2023-04-11T09:52:37.326Z,63.97
2023-04-11T09:53:37.286Z,66.06
2023-04-11T09:54:37.307Z,64.78
2023-04-11T09:55:37.269Z,64.13
2023-04-11T09:56:37.278Z,65.74
2023-04-11T09:57:37.316Z,65.74
2023-04-11T09:58:37.238Z,64.61
2023-04-11T09:59:37.200Z,62.20
2023-04-11T10:00:37.171Z,66.55
2023-04-11T10:02:09.117Z,64.78
2023-04-11T10:02:37.244Z,62.68
2023-04-11T10:03:37.172Z,64.45
2023-04-11T10:04:37.139Z,67.35
2023-04-11T10:05:37.090Z,64.45
2023-04-11T10:06:37.097Z,65.26
2023-04-11T10:07:37.065Z,64.78
2023-04-11T10:08:37.060Z,67.68
2023-04-11T10:09:37.038Z,79.60
2023-04-11T10:10:37.175Z,66.23
2023-04-11T10:11:38.031Z,67.03
2023-04-11T10:12:36.994Z,67.68
2023-04-11T10:13:36.981Z,68.96
2023-04-11T10:14:36.970Z,67.84
2023-04-11T10:15:36.979Z,66.23
2023-04-11T10:16:36.975Z,68.00
2023-04-11T10:17:37.001Z,68.00
2023-04-11T10:18:36.916Z,67.03
2023-04-11T10:19:36.900Z,66.87
2023-04-11T10:20:36.905Z,67.35
2023-04-11T10:21:36.847Z,68.48
2023-04-11T10:22:36.824Z,67.35
2023-04-11T10:23:36.804Z,69.77
2023-04-11T10:24:36.851Z,64.94
2023-04-11T10:25:36.837Z,66.39
2023-04-11T10:26:36.769Z,66.23
2023-04-11T10:27:36.739Z,69.29
2023-04-11T10:28:36.741Z,66.39
2023-04-11T10:29:36.707Z,68.16
2023-04-11T10:30:36.730Z,66.55
2023-04-11T10:31:36.774Z,67.03
2023-04-11T10:32:36.689Z,67.35
2023-04-11T10:33:36.724Z,66.87
2023-04-11T10:34:36.636Z,69.13
2023-04-11T10:35:36.636Z,65.26
2023-04-11T10:36:36.626Z,65.74
2023-04-11T10:37:36.603Z,68.16
2023-04-11T10:38:36.578Z,63.97
2023-04-11T10:39:36.560Z,64.45
2023-04-11T10:40:36.524Z,66.87
2023-04-11T10:41:36.546Z,65.42
2023-04-11T10:42:36.530Z,65.10
2023-04-11T10:43:39.071Z,65.26
2023-04-11T10:44:37.509Z,67.35
2023-04-11T10:45:36.464Z,65.90
2023-04-11T10:46:36.540Z,67.03
2023-04-11T10:47:36.445Z,65.10
2023-04-11T10:48:36.493Z,69.77
2023-04-11T10:49:36.420Z,65.10
2023-04-11T10:50:36.396Z,66.55
2023-04-11T10:51:36.363Z,65.10
2023-04-11T10:52:36.344Z,67.19
2023-04-11T10:53:36.369Z,67.84
2023-04-11T10:54:36.324Z,70.42
2023-04-11T10:55:36.324Z,67.19
2023-04-11T10:56:36.271Z,64.45
2023-04-11T10:57:36.269Z,63.16
2023-04-11T10:58:36.247Z,65.10
2023-04-11T10:59:36.239Z,66.23
2023-04-11T11:00:36.263Z,68.48
2023-04-11T11:01:42.954Z,67.19
2023-04-11T11:02:38.517Z,68.80
2023-04-11T11:03:36.253Z,66.55
2023-04-11T11:04:36.233Z,67.35
2023-04-11T11:05:36.170Z,68.00
2023-04-11T11:06:46.178Z,67.84
2023-04-11T11:07:38.111Z,67.84
2023-04-11T11:08:36.085Z,68.80
2023-04-11T11:09:36.068Z,65.10
2023-04-11T11:10:36.126Z,67.03
2023-04-11T11:11:36.055Z,68.32
2023-04-11T11:12:36.029Z,65.74
2023-04-11T11:13:36.042Z,66.39
2023-04-11T11:14:36.018Z,66.71
2023-04-11T11:15:36.084Z,65.90
2023-04-11T11:16:35.985Z,65.74
2023-04-11T11:17:35.971Z,65.74
2023-04-11T11:18:35.927Z,68.32
2023-04-11T11:19:35.928Z,67.68
2023-04-11T11:20:35.919Z,68.80
2023-04-11T11:21:35.903Z,69.61
2023-04-11T11:22:35.844Z,68.16
2023-04-11T11:23:36.480Z,68.16
2023-04-11T11:24:35.859Z,67.68
2023-04-11T11:25:35.893Z,71.06
2023-04-11T11:26:35.810Z,67.84
2023-04-11T11:27:35.769Z,68.32
2023-04-11T11:28:35.798Z,68.80
2023-04-11T11:29:35.735Z,67.84
2023-04-11T11:30:35.732Z,67.51
2023-04-11T11:31:35.780Z,69.13
2023-04-11T11:32:35.703Z,69.29
2023-04-11T11:33:35.972Z,67.68
2023-04-11T11:34:35.663Z,69.77
2023-04-11T11:35:35.628Z,71.70
2023-04-11T11:36:35.698Z,67.84
2023-04-11T11:37:35.605Z,66.39
2023-04-11T11:38:35.589Z,68.80
2023-04-11T11:39:35.630Z,67.51
2023-04-11T11:40:35.540Z,65.58
2023-04-11T11:41:35.560Z,67.03
2023-04-11T11:42:35.504Z,67.03
2023-04-11T11:43:35.483Z,68.48
2023-04-11T11:44:35.479Z,65.10
2023-04-11T11:45:35.471Z,66.39
2023-04-11T11:46:35.500Z,66.55
2023-04-11T11:47:35.450Z,66.39
2023-04-11T11:48:35.404Z,66.55
2023-04-11T11:49:35.403Z,68.80
2023-04-11T11:50:35.371Z,69.77
2023-04-11T11:51:35.405Z,69.29
2023-04-11T11:52:35.346Z,69.29
2023-04-11T11:53:35.325Z,69.61
2023-04-11T11:54:35.306Z,69.61
2023-04-11T11:55:35.377Z,70.09
2023-04-11T11:56:35.294Z,71.22
2023-04-11T11:57:35.271Z,69.29
2023-04-11T11:58:35.234Z,69.29
2023-04-11T11:59:35.247Z,65.74
2023-04-11T12:00:35.234Z,69.13
2023-04-11T12:01:35.244Z,66.55
2023-04-11T12:02:35.309Z,65.10
2023-04-11T12:03:35.309Z,65.10
2023-04-11T12:04:35.265Z,69.77
2023-04-11T12:05:35.202Z,67.51
2023-04-11T12:06:35.154Z,68.16
2023-04-11T12:07:35.095Z,66.87
2023-04-11T12:08:35.078Z,68.00
2023-04-11T12:09:35.068Z,71.22
2023-04-11T12:10:35.033Z,69.29
2023-04-11T12:11:35.150Z,67.35
2023-04-11T12:12:35.003Z,66.87
2023-04-11T12:13:34.990Z,68.16
2023-04-11T12:14:34.987Z,71.87
2023-04-11T12:15:34.984Z,75.89
2023-04-11T12:16:35.002Z,67.35
2023-04-11T12:17:36.290Z,71.22
2023-04-11T12:18:35.908Z,72.67
2023-04-11T12:19:34.924Z,67.19
2023-04-11T12:20:34.876Z,68.48
2023-04-11T12:21:34.873Z,64.78
2023-04-11T12:22:34.848Z,67.68
2023-04-11T12:23:34.816Z,68.32
2023-04-11T12:24:34.803Z,69.93
2023-04-11T12:25:34.784Z,66.23
2023-04-11T12:26:34.924Z,68.32
2023-04-11T12:27:34.771Z,67.84
2023-04-11T12:28:34.756Z,65.58
2023-04-11T12:29:34.722Z,67.19
2023-04-11T12:30:34.710Z,69.45
2023-04-11T12:31:34.765Z,68.00
2023-04-11T12:32:34.692Z,66.71
2023-04-11T12:33:34.663Z,65.42
2023-04-11T12:34:34.652Z,67.84
2023-04-11T12:35:34.687Z,68.32
2023-04-11T12:36:34.659Z,67.35
2023-04-11T12:37:34.599Z,69.29
2023-04-11T12:38:34.568Z,71.22
2023-04-11T12:39:34.594Z,68.64
2023-04-11T12:40:34.543Z,67.68
2023-04-11T12:41:34.557Z,71.70
2023-04-11T12:42:39.056Z,69.29
2023-04-11T12:43:36.812Z,68.16
2023-04-11T12:44:34.477Z,68.64
2023-04-11T12:45:34.531Z,66.71
2023-04-11T12:46:34.501Z,67.03
2023-04-11T12:47:34.453Z,67.19
2023-04-11T12:48:34.405Z,66.71
2023-04-11T12:49:34.387Z,66.06
2023-04-11T12:50:34.379Z,66.55
2023-04-11T12:51:34.397Z,68.96
2023-04-11T12:52:34.354Z,67.35